Time;durP1;ratioP1;P1;durP2;ratioP2;P2;SDS_P1;SDS_P2;PMS_P1;PMS_P2;Temp;Humidity;BMP_temperature;BMP_pressure;BME280_temperature;BME280_humidity;BME280_pressure;Samples;Min_cycle;Max_cycle;Signal;HPM_P1;HPM_P2
2023/07/17 00:01:48;;;;;;;;;;;;;;;29.38;49.00;101348.44;5094699;28;19916;-48
2023/07/17 00:04:14;;;;;;;;;;;;;;;29.55;48.64;101353.28;5094427;28;19917;-49
2023/07/17 00:06:39;;;;;;;;;;;;;;;30.37;46.84;101357.84;5102783;28;19951;-54
2023/07/17 00:09:06;;;;;;;;;;;;;;;30.55;44.96;101362.28;5094605;28;19917;-51
2023/07/17 00:11:32;;;;;;;;;;;;;;;30.08;46.50;101362.75;5094707;28;19920;-50
2023/07/17 00:13:57;;;;;;;;;;;;;;;29.43;49.77;101373.13;5093891;28;19924;-51
2023/07/17 00:16:23;;;;;;;;;;;;;;;29.72;48.01;101355.34;5099875;28;19956;-52
2023/07/17 00:18:48;;;;;;;;;;;;;;;29.32;49.54;101359.59;5094479;28;19924;-52
2023/07/17 00:21:14;;;;;;;;;;;;;;;29.77;48.55;101350.53;5101030;28;19922;-51
2023/07/17 00:23:40;;;;;;;;;;;;;;;29.76;48.80;101356.38;5098289;28;19935;-51
2023/07/17 00:26:05;;;;;;;;;;;;;;;30.23;47.42;101360.72;5094295;28;19983;-52
2023/07/17 00:28:31;;;;;;;;;;;;;;;30.19;47.96;101364.09;5094134;28;19943;-48
2023/07/17 00:30:57;;;;;;;;;;;;;;;29.19;50.64;101360.41;5094236;28;19921;-50
2023/07/17 00:33:23;;;;;;;;;;;;;;;29.52;50.15;101362.97;5094021;28;19923;-49
2023/07/17 00:35:49;;;;;;;;;;;;;;;30.41;46.68;101365.16;5119327;28;19984;-52
2023/07/17 00:38:14;;;;;;;;;;;;;;;30.26;46.09;101357.31;5080957;28;19924;-48
2023/07/17 00:40:40;;;;;;;;;;;;;;;30.13;46.46;101364.56;5094575;28;19979;-50
2023/07/17 00:43:08;;;;;;;;;;;;;;;30.05;47.32;101364.16;5081177;28;19916;-50
2023/07/17 00:45:34;;;;;;;;;;;;;;;29.63;48.70;101352.53;5100122;28;19942;-50
2023/07/17 00:48:02;;;;;;;;;;;;;;;29.53;49.71;101353.63;5098277;28;19921;-52
2023/07/17 00:50:27;;;;;;;;;;;;;;;29.57;50.04;101349.09;5076590;28;19924;-52
2023/07/17 00:52:55;;;;;;;;;;;;;;;30.01;48.67;101352.16;5095900;28;19920;-51
2023/07/17 00:55:20;;;;;;;;;;;;;;;29.56;50.22;101346.66;5113086;28;20313;-49
2023/07/17 00:57:47;;;;;;;;;;;;;;;29.38;50.85;101345.69;5113833;28;19936;-52
2023/07/17 01:00:14;;;;;;;;;;;;;;;29.79;50.17;101355.75;5096864;28;19913;-53
2023/07/17 01:02:41;;;;;;;;;;;;;;;29.83;50.28;101362.25;5109269;28;19921;-51
2023/07/17 01:05:08;;;;;;;;;;;;;;;30.04;48.79;101368.06;5101320;28;19927;-52
2023/07/17 01:07:34;;;;;;;;;;;;;;;29.74;49.62;101375.13;5100586;28;19921;-52
2023/07/17 01:10:00;;;;;;;;;;;;;;;29.88;50.15;101375.09;5097664;28;19924;-49
2023/07/17 01:12:27;;;;;;;;;;;;;;;29.51;51.81;101366.88;5106086;28;19916;-49
2023/07/17 01:14:53;;;;;;;;;;;;;;;29.70;51.31;101368.63;5113922;28;19916;-48
2023/07/17 01:17:18;;;;;;;;;;;;;;;28.59;56.36;101363.03;5113322;28;19916;-51
2023/07/17 01:19:44;;;;;;;;;;;;;;;28.98;54.58;101365.56;5080037;28;19952;-49
2023/07/17 01:22:20;;;;;;;;;;;;;;;29.04;55.08;101370.66;5102742;28;19924;-51
2023/07/17 01:24:46;;;;;;;;;;;;;;;29.46;53.84;101369.75;5113757;28;19923;-50
2023/07/17 01:27:12;;;;;;;;;;;;;;;29.18;53.67;101376.16;5079452;28;19920;-53
2023/07/17 01:29:37;;;;;;;;;;;;;;;29.03;55.20;101374.53;5079825;28;19925;-51
2023/07/17 01:32:03;;;;;;;;;;;;;;;29.04;54.70;101386.38;5099158;28;19924;-50
2023/07/17 01:34:29;;;;;;;;;;;;;;;28.70;56.30;101380.16;5097193;28;19917;-52
2023/07/17 01:36:55;;;;;;;;;;;;;;;28.85;56.45;101389.25;5113196;28;20332;-54
2023/07/17 01:39:20;;;;;;;;;;;;;;;28.83;55.67;101383.22;5096853;28;19946;-53
2023/07/17 01:41:46;;;;;;;;;;;;;;;28.84;56.34;101387.63;5113088;28;19920;-53
2023/07/17 01:44:11;;;;;;;;;;;;;;;28.65;56.12;101390.44;5099634;28;19976;-58
2023/07/17 01:46:37;;;;;;;;;;;;;;;28.90;56.25;101392.69;5080595;28;19924;-53
2023/07/17 01:49:03;;;;;;;;;;;;;;;28.74;55.96;101388.63;5097013;28;19927;-51
2023/07/17 01:51:28;;;;;;;;;;;;;;;29.11;54.16;101383.19;5079707;28;20078;-48
2023/07/17 01:53:53;;;;;;;;;;;;;;;28.72;56.72;101388.09;5105271;28;19917;-51
2023/07/17 01:56:19;;;;;;;;;;;;;;;28.70;57.12;101391.16;5097033;28;19916;-48
2023/07/17 01:58:44;;;;;;;;;;;;;;;28.70;57.11;101388.41;5079318;28;19917;-49
2023/07/17 02:01:10;;;;;;;;;;;;;;;28.91;56.49;101388.00;5112576;28;19955;-48
2023/07/17 02:03:36;;;;;;;;;;;;;;;29.14;54.49;101388.06;5112921;28;19923;-51
2023/07/17 02:06:02;;;;;;;;;;;;;;;28.47;58.89;101391.03;5114766;28;19920;-54
2023/07/17 02:08:27;;;;;;;;;;;;;;;29.12;56.33;101382.06;5104541;28;19959;-48
2023/07/17 02:10:54;;;;;;;;;;;;;;;28.44;57.97;101386.16;5077813;28;19938;-47
2023/07/17 02:13:19;;;;;;;;;;;;;;;28.82;57.73;101376.06;5096082;28;19967;-47
2023/07/17 02:15:45;;;;;;;;;;;;;;;28.84;57.09;101387.63;5078896;28;19927;-49
2023/07/17 02:18:10;;;;;;;;;;;;;;;28.79;57.99;101391.28;5112481;28;19942;-49
2023/07/17 02:20:37;;;;;;;;;;;;;;;29.53;53.65;101391.38;5096367;28;19916;-49
2023/07/17 02:23:04;;;;;;;;;;;;;;;29.21;54.06;101385.72;5123825;28;19935;-52
2023/07/17 02:25:32;;;;;;;;;;;;;;;28.82;56.10;101387.91;5097731;28;19938;-52
2023/07/17 02:27:58;;;;;;;;;;;;;;;28.56;56.87;101388.41;5112098;28;20015;-51
2023/07/17 02:30:24;;;;;;;;;;;;;;;29.13;53.84;101389.19;5095835;28;19916;-52
2023/07/17 02:32:49;;;;;;;;;;;;;;;29.12;54.25;101387.56;5096157;28;19935;-48
2023/07/17 02:35:15;;;;;;;;;;;;;;;28.85;55.06;101383.75;5095659;28;19972;-50
2023/07/17 02:37:40;;;;;;;;;;;;;;;29.33;53.40;101386.00;5095880;28;19944;-53
2023/07/17 02:40:12;;;;;;;;;;;;;;;28.88;55.45;101391.38;5112035;28;19916;-50
2023/07/17 02:42:37;;;;;;;;;;;;;;;28.73;56.30;101398.78;5096141;28;19916;-48
2023/07/17 02:45:06;;;;;;;;;;;;;;;28.44;58.65;101401.81;5111763;28;19975;-51
2023/07/17 02:47:31;;;;;;;;;;;;;;;28.23;59.96;101406.91;5078200;28;19931;-49
2023/07/17 02:49:57;;;;;;;;;;;;;;;28.33;60.09;101410.28;5078093;28;19916;-49
2023/07/17 02:52:22;;;;;;;;;;;;;;;28.13;62.66;101408.66;5077916;28;19923;-52
2023/07/17 02:54:48;;;;;;;;;;;;;;;28.25;63.06;101407.41;5078020;28;19923;-52
2023/07/17 02:57:14;;;;;;;;;;;;;;;27.99;63.91;101413.31;5095607;28;19916;-54
2023/07/17 02:59:40;;;;;;;;;;;;;;;28.10;64.31;101412.00;5095510;28;19916;-55
2023/07/17 03:02:05;;;;;;;;;;;;;;;28.28;62.48;101415.03;5078038;28;19917;-52
2023/07/17 03:04:31;;;;;;;;;;;;;;;27.61;68.24;101417.72;5095005;28;19942;-49
2023/07/17 03:06:57;;;;;;;;;;;;;;;28.26;63.16;101414.53;5116906;28;19920;-50
2023/07/17 03:09:22;;;;;;;;;;;;;;;27.53;65.13;101414.84;5095157;28;19928;-53
2023/07/17 03:11:48;;;;;;;;;;;;;;;28.76;59.31;101420.19;5111524;28;19917;-51
2023/07/17 03:14:14;;;;;;;;;;;;;;;28.03;62.77;101423.41;5110953;28;19920;-52
2023/07/17 03:16:40;;;;;;;;;;;;;;;28.22;62.67;101419.81;5106411;28;19979;-54
2023/07/17 03:19:06;;;;;;;;;;;;;;;28.15;61.57;101425.72;5096889;28;19923;-52
2023/07/17 03:21:31;;;;;;;;;;;;;;;28.28;61.06;101423.28;5077708;28;19927;-53
2023/07/17 03:23:56;;;;;;;;;;;;;;;27.89;62.51;101417.84;5113896;28;19916;-51
2023/07/17 03:26:22;;;;;;;;;;;;;;;27.70;64.50;101412.38;5077652;28;19927;-53
2023/07/17 03:28:48;;;;;;;;;;;;;;;28.47;59.35;101421.28;5111366;28;19922;-49
2023/07/17 03:31:15;;;;;;;;;;;;;;;27.60;64.28;101413.34;5081109;28;19912;-51
2023/07/17 03:33:41;;;;;;;;;;;;;;;27.57;64.68;101419.44;5116216;28;19920;-52
2023/07/17 03:36:07;;;;;;;;;;;;;;;27.20;66.84;101415.53;5095443;28;19916;-50
2023/07/17 03:38:32;;;;;;;;;;;;;;;26.83;72.29;101419.81;5087423;28;19954;-50
2023/07/17 03:40:58;;;;;;;;;;;;;;;27.27;68.38;101426.16;5077780;28;19917;-49
2023/07/17 03:43:24;;;;;;;;;;;;;;;27.43;66.84;101421.25;5077443;28;19916;-50
2023/07/17 03:45:51;;;;;;;;;;;;;;;27.61;65.44;101414.97;5077528;28;19980;-52
2023/07/17 03:48:17;;;;;;;;;;;;;;;27.66;64.70;101422.34;5116896;28;19928;-51
2023/07/17 03:50:43;;;;;;;;;;;;;;;27.28;67.45;101425.03;5109549;28;19920;-51
2023/07/17 03:53:08;;;;;;;;;;;;;;;27.16;67.80;101428.22;5110901;28;20003;-53
2023/07/17 03:55:35;;;;;;;;;;;;;;;27.14;68.18;101424.94;5113889;28;19927;-51
2023/07/17 03:58:01;;;;;;;;;;;;;;;27.03;69.58;101427.84;5080017;28;19916;-55
2023/07/17 04:00:26;;;;;;;;;;;;;;;27.02;71.97;101422.63;5077387;28;19969;-53
2023/07/17 04:02:52;;;;;;;;;;;;;;;27.24;68.23;101427.56;5094673;28;20390;-52
2023/07/17 04:05:26;;;;;;;;;;;;;;;27.77;64.69;101437.53;5078048;28;19924;-53
2023/07/17 04:07:52;;;;;;;;;;;;;;;27.39;66.09;101433.94;5096631;28;19943;-52
2023/07/17 04:10:18;;;;;;;;;;;;;;;27.46;67.41;101437.16;5110781;28;19920;-51
2023/07/17 04:12:44;;;;;;;;;;;;;;;27.34;66.80;101441.16;5110751;28;19937;-49
2023/07/17 04:15:10;;;;;;;;;;;;;;;27.04;70.46;101439.63;5077297;28;19921;-48
2023/07/17 04:17:36;;;;;;;;;;;;;;;27.31;67.53;101444.50;5077296;28;19955;-49
2023/07/17 04:20:02;;;;;;;;;;;;;;;27.71;64.66;101441.50;5110906;28;20006;-54
2023/07/17 04:22:28;;;;;;;;;;;;;;;27.52;64.97;101438.75;5076993;28;20036;-47
2023/07/17 04:24:54;;;;;;;;;;;;;;;28.03;62.89;101447.31;5077156;28;19987;-48
2023/07/17 04:27:19;;;;;;;;;;;;;;;27.88;63.45;101453.88;5077619;28;19921;-47
2023/07/17 04:29:48;;;;;;;;;;;;;;;27.15;69.13;101451.28;5083068;28;19916;-51
2023/07/17 04:32:13;;;;;;;;;;;;;;;27.11;69.10;101461.22;5110530;28;19936;-48
2023/07/17 04:34:39;;;;;;;;;;;;;;;27.40;67.06;101457.56;5096684;28;19916;-50
2023/07/17 04:37:04;;;;;;;;;;;;;;;26.56;74.19;101457.66;5119291;28;19926;-48
2023/07/17 04:39:30;;;;;;;;;;;;;;;27.29;69.24;101454.13;5114657;28;19923;-48
2023/07/17 04:41:56;;;;;;;;;;;;;;;27.76;64.73;101455.16;5098369;28;19943;-48
2023/07/17 04:44:21;;;;;;;;;;;;;;;27.39;67.84;101456.75;5108057;28;19920;-49
2023/07/17 04:46:47;;;;;;;;;;;;;;;26.85;74.23;101454.09;5114358;28;19921;-50
2023/07/17 04:49:12;;;;;;;;;;;;;;;27.05;72.72;101465.94;5082061;28;19924;-47
2023/07/17 04:51:38;;;;;;;;;;;;;;;27.34;69.97;101465.06;5080168;28;19980;-50
2023/07/17 04:54:04;;;;;;;;;;;;;;;27.27;69.47;101476.41;5120987;28;20002;-51
2023/07/17 04:56:30;;;;;;;;;;;;;;;27.43;68.50;101462.44;5119111;28;19927;-48
2023/07/17 04:58:57;;;;;;;;;;;;;;;26.73;72.58;101468.19;5087086;28;19931;-51
2023/07/17 05:01:24;;;;;;;;;;;;;;;27.30;69.15;101481.31;5101001;28;19938;-48
2023/07/17 05:03:50;;;;;;;;;;;;;;;27.57;65.85;101468.88;5083786;28;19943;-48
2023/07/17 05:06:15;;;;;;;;;;;;;;;27.39;66.86;101472.41;5113825;28;19927;-48
2023/07/17 05:08:41;;;;;;;;;;;;;;;26.37;71.60;101476.75;5114099;28;19991;-49
2023/07/17 05:11:07;;;;;;;;;;;;;;;27.44;67.38;101484.13;5080144;28;19938;-50
2023/07/17 05:13:37;;;;;;;;;;;;;;;27.51;64.56;101486.56;5080147;28;19924;-50
2023/07/17 05:16:04;;;;;;;;;;;;;;;26.91;69.33;101472.16;5114106;28;19916;-49
2023/07/17 05:18:30;;;;;;;;;;;;;;;27.39;65.78;101483.38;5113801;28;19924;-50
2023/07/17 05:20:56;;;;;;;;;;;;;;;26.75;69.50;101471.44;5100422;28;19916;-49
2023/07/17 05:23:21;;;;;;;;;;;;;;;26.90;69.88;101483.41;5096758;28;19951;-48
2023/07/17 05:26:05;;;;;;;;;;;;;;;26.73;69.61;101490.13;5113706;28;19924;-48
2023/07/17 05:28:31;;;;;;;;;;;;;;;27.63;64.12;101489.66;5119717;28;19919;-50
2023/07/17 05:30:57;;;;;;;;;;;;;;;27.52;63.59;101493.69;5113624;28;19996;-49
2023/07/17 05:33:24;;;;;;;;;;;;;;;26.84;65.78;101499.06;5079827;28;19924;-52
2023/07/17 05:35:50;;;;;;;;;;;;;;;27.79;63.55;101492.22;5079852;28;19942;-49
2023/07/17 05:38:18;;;;;;;;;;;;;;;27.92;60.75;101498.91;5112887;28;20000;-53
2023/07/17 05:40:45;;;;;;;;;;;;;;;28.11;60.13;101504.38;5113401;28;19916;-55
2023/07/17 05:43:10;;;;;;;;;;;;;;;28.26;58.62;101514.34;5079638;28;19916;-51
2023/07/17 05:45:41;;;;;;;;;;;;;;;27.95;60.24;101522.22;5083792;28;19916;-55
2023/07/17 05:48:06;;;;;;;;;;;;;;;27.13;65.27;101505.66;5088381;28;19928;-51
2023/07/17 05:50:32;;;;;;;;;;;;;;;27.86;60.81;101511.09;5097228;28;19905;-53
2023/07/17 05:52:58;;;;;;;;;;;;;;;28.24;58.70;101518.50;5084834;28;19988;-53
2023/07/17 05:55:23;;;;;;;;;;;;;;;27.93;60.42;101525.25;5097056;28;19927;-50
2023/07/17 05:57:49;;;;;;;;;;;;;;;27.83;60.61;101523.47;5092451;28;19947;-51
2023/07/17 06:00:15;;;;;;;;;;;;;;;28.06;59.33;101534.69;5110894;28;19916;-52
2023/07/17 06:02:43;;;;;;;;;;;;;;;28.19;60.12;101533.16;5091643;28;19938;-51
2023/07/17 06:05:09;;;;;;;;;;;;;;;27.96;59.28;101537.59;5095588;28;19973;-52
2023/07/17 06:07:35;;;;;;;;;;;;;;;28.41;58.52;101537.22;5095370;28;19967;-52
2023/07/17 06:10:00;;;;;;;;;;;;;;;28.89;56.14;101536.94;5098837;28;19916;-53
2023/07/17 06:12:26;;;;;;;;;;;;;;;28.09;58.79;101531.34;5078823;28;19927;-51
2023/07/17 06:14:51;;;;;;;;;;;;;;;27.89;61.15;101537.97;5101867;28;19929;-53
2023/07/17 06:17:17;;;;;;;;;;;;;;;28.46;58.67;101539.88;5090110;28;19923;-53
2023/07/17 06:19:43;;;;;;;;;;;;;;;28.12;59.10;101544.47;5096681;28;19920;-51
2023/07/17 06:22:08;;;;;;;;;;;;;;;28.73;57.46;101546.59;5095853;28;19917;-49
2023/07/17 06:24:34;;;;;;;;;;;;;;;28.62;57.94;101545.94;5096616;28;19939;-54
2023/07/17 06:26:59;;;;;;;;;;;;;;;28.58;58.48;101545.72;5083944;28;20001;-54
2023/07/17 06:29:25;;;;;;;;;;;;;;;29.81;52.40;101562.97;5113741;28;19916;-54
2023/07/17 06:31:51;;;;;;;;;;;;;;;29.15;53.49;101563.19;5104655;28;19983;-48
2023/07/17 06:34:18;;;;;;;;;;;;;;;30.89;48.70;101569.78;5103946;28;19931;-48
2023/07/17 06:36:44;;;;;;;;;;;;;;;30.35;49.88;101564.25;5083994;28;19923;-50
2023/07/17 06:39:09;;;;;;;;;;;;;;;31.11;47.70;101576.38;5106509;28;19916;-50
2023/07/17 06:41:35;;;;;;;;;;;;;;;32.30;44.05;101589.53;5099331;28;19931;-52
2023/07/17 06:44:00;;;;;;;;;;;;;;;30.22;48.37;101568.66;5085838;28;19948;-47
2023/07/17 06:46:26;;;;;;;;;;;;;;;32.24;45.01;101579.75;5089985;28;19928;-47
2023/07/17 06:48:51;;;;;;;;;;;;;;;31.75;46.12;101587.03;5101209;28;19963;-50
2023/07/17 06:51:17;;;;;;;;;;;;;;;31.12;46.47;101587.13;5085497;28;19940;-48
2023/07/17 06:53:42;;;;;;;;;;;;;;;31.44;45.94;101587.91;5085174;28;19920;-50
2023/07/17 06:56:15;;;;;;;;;;;;;;;30.89;46.39;101594.63;5088160;28;19991;-52
2023/07/17 06:58:40;;;;;;;;;;;;;;;30.74;46.40;101595.84;5097006;28;19938;-51
2023/07/17 07:01:06;;;;;;;;;;;;;;;30.27;48.50;101587.88;5091398;28;19916;-51
2023/07/17 07:03:31;;;;;;;;;;;;;;;31.52;45.65;101594.59;5095355;28;19961;-52
2023/07/17 07:06:00;;;;;;;;;;;;;;;31.55;45.92;101593.16;5093646;28;19916;-48
2023/07/17 07:08:26;;;;;;;;;;;;;;;31.30;45.81;101593.56;5103319;28;19916;-50
2023/07/17 07:10:53;;;;;;;;;;;;;;;31.94;44.46;101604.47;5095453;28;19924;-54
2023/07/17 07:13:19;;;;;;;;;;;;;;;30.51;48.31;101590.31;5095311;28;19912;-50
2023/07/17 07:15:45;;;;;;;;;;;;;;;32.57;43.86;101599.44;5098445;28;19916;-50
2023/07/17 07:18:10;;;;;;;;;;;;;;;31.47;46.14;101611.34;5095080;28;19941;-53
2023/07/17 07:20:35;;;;;;;;;;;;;;;30.79;46.27;101594.91;5091149;28;20004;-48
2023/07/17 07:23:01;;;;;;;;;;;;;;;31.89;44.46;101605.44;5086095;28;19927;-54
2023/07/17 07:25:26;;;;;;;;;;;;;;;33.29;41.55;101606.41;5095132;28;19958;-52
2023/07/17 07:27:52;;;;;;;;;;;;;;;32.81;42.75;101611.13;5097874;28;19927;-51
2023/07/17 07:30:18;;;;;;;;;;;;;;;32.46;42.35;101625.84;5102150;28;19966;-52
2023/07/17 07:32:43;;;;;;;;;;;;;;;31.04;44.60;101621.84;5095312;28;19988;-48
2023/07/17 07:35:09;;;;;;;;;;;;;;;31.48;43.69;101632.31;5095314;28;19923;-52
2023/07/17 07:37:34;;;;;;;;;;;;;;;31.30;44.61;101632.25;5100139;28;19916;-49
2023/07/17 07:39:59;;;;;;;;;;;;;;;33.22;40.70;101631.88;5093903;28;19931;-46
2023/07/17 07:42:25;;;;;;;;;;;;;;;32.64;41.70;101634.09;5093955;28;19932;-47
2023/07/17 07:44:51;;;;;;;;;;;;;;;32.45;42.38;101638.06;5094459;28;19986;-50
2023/07/17 07:47:16;;;;;;;;;;;;;;;31.41;43.54;101643.03;5094362;28;19928;-48
2023/07/17 07:49:42;;;;;;;;;;;;;;;30.93;44.91;101645.34;5085165;28;19947;-50
2023/07/17 07:52:07;;;;;;;;;;;;;;;31.39;43.77;101635.03;5094911;28;19917;-50
2023/07/17 07:54:33;;;;;;;;;;;;;;;32.92;40.65;101642.88;5101415;28;19916;-51
2023/07/17 07:56:58;;;;;;;;;;;;;;;33.39;40.69;101644.03;5085046;28;19940;-53
2023/07/17 07:59:24;;;;;;;;;;;;;;;32.10;41.30;101647.13;5091163;28;19923;-50
2023/07/17 08:01:49;;;;;;;;;;;;;;;32.83;40.43;101642.88;5076662;28;19985;-50
2023/07/17 08:04:14;;;;;;;;;;;;;;;33.20;41.16;101642.47;5094043;28;19916;-52
2023/07/17 08:06:40;;;;;;;;;;;;;;;32.12;42.26;101644.84;5094096;28;19987;-48
2023/07/17 08:09:05;;;;;;;;;;;;;;;32.27;40.60;101653.78;5095702;28;19984;-50
2023/07/17 08:11:32;;;;;;;;;;;;;;;32.31;42.22;101657.56;5103617;28;19931;-51
2023/07/17 08:13:57;;;;;;;;;;;;;;;32.74;40.17;101662.25;5082401;28;19964;-50
2023/07/17 08:16:23;;;;;;;;;;;;;;;32.47;41.00;101663.44;5105154;28;20015;-50
2023/07/17 08:18:48;;;;;;;;;;;;;;;32.98;39.42;101658.16;5101712;28;19916;-49
2023/07/17 08:21:14;;;;;;;;;;;;;;;33.17;40.08;101679.16;5098391;28;19944;-50
2023/07/17 08:23:40;;;;;;;;;;;;;;;32.33;41.56;101688.53;5098180;28;19943;-53
2023/07/17 08:26:05;;;;;;;;;;;;;;;32.45;41.49;101662.97;5102004;28;19943;-51
2023/07/17 08:28:31;;;;;;;;;;;;;;;32.71;40.31;101660.16;5102472;28;19932;-50
2023/07/17 08:30:56;;;;;;;;;;;;;;;33.02;39.10;101666.66;5098254;28;19942;-49
2023/07/17 08:33:22;;;;;;;;;;;;;;;32.71;39.77;101665.69;5097912;28;19927;-50
2023/07/17 08:35:48;;;;;;;;;;;;;;;30.90;42.22;101660.59;5099152;28;19920;-51
2023/07/17 08:38:14;;;;;;;;;;;;;;;32.23;41.75;101661.94;5101969;28;19916;-50
2023/07/17 08:40:39;;;;;;;;;;;;;;;32.86;40.51;101667.13;5098304;28;19916;-48
2023/07/17 08:43:06;;;;;;;;;;;;;;;33.20;38.32;101681.25;5098197;28;19965;-47
2023/07/17 08:45:31;;;;;;;;;;;;;;;33.37;39.31;101668.50;5097857;28;19919;-53
2023/07/17 08:47:58;;;;;;;;;;;;;;;33.89;38.24;101672.97;5099473;28;19920;-48
2023/07/17 08:50:25;;;;;;;;;;;;;;;32.87;37.92;101679.03;5097854;28;19940;-49
2023/07/17 08:52:52;;;;;;;;;;;;;;;33.24;37.54;101665.63;5097794;28;19917;-50
2023/07/17 08:55:17;;;;;;;;;;;;;;;32.85;37.80;101673.00;5106634;28;19939;-51
2023/07/17 08:57:45;;;;;;;;;;;;;;;33.17;37.14;101671.66;5097602;28;19920;-52
2023/07/17 09:00:15;;;;;;;;;;;;;;;33.61;36.84;101673.47;5097406;28;19923;-49
2023/07/17 09:02:40;;;;;;;;;;;;;;;33.64;37.29;101660.88;5097676;28;19924;-52
2023/07/17 09:05:07;;;;;;;;;;;;;;;33.08;37.12;101681.13;5102723;28;19917;-51
2023/07/17 09:07:32;;;;;;;;;;;;;;;33.44;37.20;101663.25;5106290;28;20279;-50
2023/07/17 09:10:27;;;;;;;;;;;;;;;33.32;37.58;101667.53;5097515;28;19948;-52
2023/07/17 09:12:57;;;;;;;;;;;;;;;33.12;36.51;101676.56;5067595;28;19916;-50
2023/07/17 09:15:23;;;;;;;;;;;;;;;32.94;36.53;101671.06;5099489;28;19920;-49
2023/07/17 09:17:49;;;;;;;;;;;;;;;33.87;35.77;101673.31;5097367;28;19917;-50
2023/07/17 09:20:18;;;;;;;;;;;;;;;34.72;34.96;101670.56;5096344;28;19951;-51
2023/07/17 09:22:43;;;;;;;;;;;;;;;35.39;33.98;101674.44;5097029;28;19926;-52
2023/07/17 09:25:10;;;;;;;;;;;;;;;33.35;34.82;101676.31;5109209;28;19941;-48
2023/07/17 09:27:41;;;;;;;;;;;;;;;33.94;35.49;101683.09;5099815;28;19916;-50
2023/07/17 09:30:14;;;;;;;;;;;;;;;33.86;35.22;101680.00;5104993;28;19920;-50
2023/07/17 09:32:40;;;;;;;;;;;;;;;33.11;36.13;101677.72;5097320;28;19916;-52
2023/07/17 09:35:06;;;;;;;;;;;;;;;34.47;35.39;101684.34;5096933;28;20007;-51
2023/07/17 09:37:33;;;;;;;;;;;;;;;34.62;34.86;101676.56;5096767;28;19931;-52
2023/07/17 09:39:58;;;;;;;;;;;;;;;35.05;34.53;101682.03;5096562;28;19980;-54
2023/07/17 09:42:24;;;;;;;;;;;;;;;35.03;34.31;101680.41;5085647;28;19927;-51
2023/07/17 09:44:53;;;;;;;;;;;;;;;35.24;34.03;101682.31;5100798;28;19916;-54
2023/07/17 09:47:19;;;;;;;;;;;;;;;36.26;32.47;101679.97;5096507;28;19928;-53
2023/07/17 09:49:49;;;;;;;;;;;;;;;36.09;32.35;101673.50;5091915;28;19920;-51
2023/07/17 09:52:15;;;;;;;;;;;;;;;37.11;31.23;101681.91;5088637;28;19947;-50
2023/07/17 09:54:45;;;;;;;;;;;;;;;37.03;31.23;101692.09;5088525;28;19916;-49
2023/07/17 09:57:16;;;;;;;;;;;;;;;37.15;30.55;101694.00;5091247;28;19963;-50
2023/07/17 09:59:47;;;;;;;;;;;;;;;35.48;31.95;101686.25;5086901;28;19920;-54
2023/07/17 10:02:16;;;;;;;;;;;;;;;35.24;33.01;101693.41;5095880;28;19931;-53
2023/07/17 10:04:44;;;;;;;;;;;;;;;34.09;33.51;101693.59;5096183;28;19938;-51
2023/07/17 10:07:12;;;;;;;;;;;;;;;34.39;33.19;101717.72;5093371;28;19920;-50
2023/07/17 10:09:38;;;;;;;;;;;;;;;33.80;33.97;101708.28;5096869;28;19924;-48
2023/07/17 10:12:04;;;;;;;;;;;;;;;35.54;32.54;101709.13;5095465;28;19983;-52
2023/07/17 10:14:31;;;;;;;;;;;;;;;36.26;30.38;101705.03;5096040;28;19916;-50
2023/07/17 10:16:56;;;;;;;;;;;;;;;36.74;29.71;101719.97;5095889;28;19923;-48
2023/07/17 10:19:26;;;;;;;;;;;;;;;38.28;29.01;101708.59;5096027;28;19920;-48
2023/07/17 10:21:56;;;;;;;;;;;;;;;39.54;26.55;101721.38;5090526;28;19920;-48
2023/07/17 10:24:22;;;;;;;;;;;;;;;37.35;28.52;101724.72;5099222;28;19920;-49
2023/07/17 10:26:48;;;;;;;;;;;;;;;36.86;30.12;101715.47;5095344;28;19920;-52
2023/07/17 10:29:13;;;;;;;;;;;;;;;37.17;30.26;101702.81;5095511;28;19927;-53
2023/07/17 10:31:48;;;;;;;;;;;;;;;37.44;29.65;101711.44;5092757;28;19917;-53
2023/07/17 10:34:14;;;;;;;;;;;;;;;39.43;28.91;101717.56;5093432;28;20263;-53
2023/07/17 10:36:40;;;;;;;;;;;;;;;41.17;26.21;101719.03;5093275;28;19924;-51
2023/07/17 10:39:07;;;;;;;;;;;;;;;40.39;26.18;101716.59;5095912;28;19935;-52
2023/07/17 10:41:32;;;;;;;;;;;;;;;39.49;27.42;101713.31;5092970;28;19921;-51
2023/07/17 10:43:57;;;;;;;;;;;;;;;40.06;27.54;101720.94;5095355;28;19938;-48
2023/07/17 10:46:27;;;;;;;;;;;;;;;42.04;24.97;101726.09;5092272;28;19920;-52
2023/07/17 10:48:53;;;;;;;;;;;;;;;41.77;26.15;101717.91;5094218;28;19951;-53
2023/07/17 10:51:18;;;;;;;;;;;;;;;43.55;24.41;101718.38;5089324;28;19925;-50
2023/07/17 10:53:44;;;;;;;;;;;;;;;43.81;23.49;101725.59;5101075;28;19916;-53
2023/07/17 10:56:09;;;;;;;;;;;;;;;41.97;25.48;101709.97;5093149;28;19948;-52
2023/07/17 10:58:35;;;;;;;;;;;;;;;38.44;25.80;101714.94;5095656;28;19939;-52
2023/07/17 11:01:04;;;;;;;;;;;;;;;38.79;25.42;101716.03;5092088;28;19925;-51
2023/07/17 11:03:29;;;;;;;;;;;;;;;38.49;26.26;101707.44;5097832;28;19984;-51
2023/07/17 11:05:58;;;;;;;;;;;;;;;38.75;26.29;101708.75;5095297;28;19943;-52
2023/07/17 11:08:26;;;;;;;;;;;;;;;40.91;25.29;101704.75;5100649;28;19988;-51
2023/07/17 11:10:52;;;;;;;;;;;;;;;39.93;25.02;101709.16;5089685;28;19932;-53
2023/07/17 11:13:17;;;;;;;;;;;;;;;41.70;24.45;101712.22;5090863;28;19912;-49
2023/07/17 11:15:44;;;;;;;;;;;;;;;41.17;24.19;101707.81;5090333;28;20006;-53
2023/07/17 11:18:09;;;;;;;;;;;;;;;41.61;23.12;101718.19;5094997;28;19927;-50
2023/07/17 11:20:35;;;;;;;;;;;;;;;39.20;25.22;101712.78;5094934;28;19923;-51
2023/07/17 11:23:03;;;;;;;;;;;;;;;39.13;25.64;101719.06;5093592;28;20894;-52
2023/07/17 11:25:29;;;;;;;;;;;;;;;40.52;24.08;101716.31;5083950;28;19917;-48
2023/07/17 11:27:56;;;;;;;;;;;;;;;39.56;25.64;101715.38;5097021;28;19920;-53
2023/07/17 11:30:26;;;;;;;;;;;;;;;38.83;25.17;101722.47;5096902;28;20055;-51
2023/07/17 11:32:55;;;;;;;;;;;;;;;39.47;25.59;101715.66;5094372;28;19934;-50
2023/07/17 11:35:21;;;;;;;;;;;;;;;36.76;27.04;101716.00;5094085;28;19908;-51
2023/07/17 11:37:47;;;;;;;;;;;;;;;37.26;26.74;101711.78;5094574;28;19958;-52
2023/07/17 11:40:12;;;;;;;;;;;;;;;38.42;25.92;101708.91;5094137;28;19946;-48
2023/07/17 11:42:57;;;;;;;;;;;;;;;38.36;27.20;101713.16;5094348;28;19988;-53
2023/07/17 11:45:26;;;;;;;;;;;;;;;38.56;27.74;101718.78;5093210;28;19924;-51
2023/07/17 11:47:55;;;;;;;;;;;;;;;38.64;27.25;101706.56;5094473;28;19959;-54
2023/07/17 11:50:24;;;;;;;;;;;;;;;39.89;26.23;101722.31;5094474;28;20222;-50
2023/07/17 11:53:10;;;;;;;;;;;;;;;38.49;27.91;101704.66;5098245;28;19916;-54
2023/07/17 11:55:36;;;;;;;;;;;;;;;40.39;26.47;101702.59;5094436;28;19923;-52
2023/07/17 11:58:12;;;;;;;;;;;;;;;40.66;25.58;101707.25;5094105;28;19962;-57
2023/07/17 12:00:39;;;;;;;;;;;;;;;41.52;24.92;101703.69;5094397;28;19952;-51
2023/07/17 12:03:05;;;;;;;;;;;;;;;38.96;27.02;101700.78;5094457;28;19937;-51
2023/07/17 12:05:30;;;;;;;;;;;;;;;38.05;27.46;101695.34;5094295;28;19916;-54
2023/07/17 12:07:56;;;;;;;;;;;;;;;38.48;27.67;101700.25;5094307;28;19920;-52
2023/07/17 12:10:21;;;;;;;;;;;;;;;36.85;28.44;101697.16;5094162;28;19992;-51
2023/07/17 12:12:47;;;;;;;;;;;;;;;38.78;27.09;101692.03;5094042;28;19921;-54
2023/07/17 12:15:12;;;;;;;;;;;;;;;40.86;25.02;101693.91;5094256;28;19916;-52
2023/07/17 12:17:38;;;;;;;;;;;;;;;40.01;25.92;101699.66;5094282;28;19916;-52
2023/07/17 12:20:03;;;;;;;;;;;;;;;40.48;25.63;101705.06;5096606;28;19924;-52
2023/07/17 12:22:29;;;;;;;;;;;;;;;39.67;26.33;101705.16;5098142;28;19944;-56
2023/07/17 12:24:56;;;;;;;;;;;;;;;42.43;24.42;101708.56;5122513;28;19952;-51
2023/07/17 12:27:21;;;;;;;;;;;;;;;42.69;24.10;101698.25;5093601;28;19970;-54
2023/07/17 12:29:47;;;;;;;;;;;;;;;41.40;24.88;101701.97;5093495;28;19917;-51
2023/07/17 12:32:12;;;;;;;;;;;;;;;38.33;24.97;101733.44;5098529;28;19960;-49